Time;durP1;ratioP1;P1;durP2;ratioP2;P2;SDS_P1;SDS_P2;PMS_P1;PMS_P2;Temp;Humidity;BMP_temperature;BMP_pressure;BME280_temperature;BME280_humidity;BME280_pressure;Samples;Min_cycle;Max_cycle;Signal;HPM_P1;HPM_P2
2020/12/05 00:01:31;;;;;;;40.40;20.60;;;;;;;;;;3589229;32;20564;-87
2020/12/05 00:03:57;;;;;;;39.73;20.60;;;;;;;;;;3587500;40;20107;-87
2020/12/05 00:06:26;;;;;;;35.43;19.53;;;;;;;;;;3587431;40;20123;-87
2020/12/05 00:08:52;;;;;;;37.53;19.83;;;;;;;;;;3587027;40;20619;-86
2020/12/05 00:11:28;;;;;;;41.10;21.27;;;;;;;;;;3591996;32;20146;-87
2020/12/05 00:13:54;;;;;;;40.03;19.90;;;;;;;;;;3591767;32;20096;-87
2020/12/05 00:16:20;;;;;;;35.13;19.43;;;;;;;;;;3591617;32;20158;-87
2020/12/05 00:18:47;;;;;;;35.57;19.23;;;;;;;;;;3591579;32;20095;-87
2020/12/05 00:21:16;;;;;;;38.93;20.57;;;;;;;;;;3588187;40;20123;-86
2020/12/05 00:23:42;;;;;;;38.67;19.60;;;;;;;;;;3592351;32;20086;-88
2020/12/05 00:26:08;;;;;;;35.23;19.13;;;;;;;;;;3592842;32;20092;-88
2020/12/05 00:28:34;;;;;;;40.93;21.70;;;;;;;;;;3587801;39;20126;-88
2020/12/05 00:31:00;;;;;;;35.73;20.00;;;;;;;;;;3587560;40;20106;-86
2020/12/05 00:33:26;;;;;;;34.73;20.10;;;;;;;;;;3588100;40;20084;-87
2020/12/05 00:35:52;;;;;;;38.37;20.97;;;;;;;;;;3588079;40;20111;-87
2020/12/05 00:38:18;;;;;;;37.80;21.57;;;;;;;;;;3587703;39;20107;-88
2020/12/05 00:40:44;;;;;;;37.80;20.23;;;;;;;;;;3587592;40;20079;-87
2020/12/05 00:43:10;;;;;;;41.37;20.07;;;;;;;;;;3587550;40;20107;-86
2020/12/05 00:45:36;;;;;;;40.33;20.83;;;;;;;;;;3587386;39;20103;-87
2020/12/05 00:48:02;;;;;;;39.03;20.50;;;;;;;;;;3588073;40;20080;-87
2020/12/05 00:50:28;;;;;;;35.37;19.13;;;;;;;;;;3589030;32;20108;-87
2020/12/05 00:52:54;;;;;;;40.80;20.63;;;;;;;;;;3587648;40;20128;-87
2020/12/05 00:55:20;;;;;;;34.07;19.77;;;;;;;;;;3587689;39;20095;-87
2020/12/05 00:57:46;;;;;;;37.00;19.53;;;;;;;;;;3587907;40;20686;-88
2020/12/05 01:00:15;;;;;;;38.67;20.07;;;;;;;;;;3587973;40;20092;-87
2020/12/05 01:02:41;;;;;;;36.13;20.10;;;;;;;;;;3590636;32;20115;-87
2020/12/05 01:05:07;;;;;;;38.67;20.13;;;;;;;;;;3596543;39;20088;-87
2020/12/05 01:07:33;;;;;;;36.30;20.03;;;;;;;;;;3599676;32;20111;-86
2020/12/05 01:09:59;;;;;;;40.70;20.97;;;;;;;;;;3596264;39;20124;-87
2020/12/05 01:12:25;;;;;;;38.67;20.83;;;;;;;;;;3596507;39;20546;-88
2020/12/05 01:14:52;;;;;;;38.23;19.40;;;;;;;;;;3596297;40;20773;-88
2020/12/05 01:17:22;;;;;;;36.03;20.13;;;;;;;;;;3598375;32;20095;-87
2020/12/05 01:19:52;;;;;;;36.67;20.63;;;;;;;;;;3603809;32;20111;-86
2020/12/05 01:22:19;;;;;;;39.00;21.20;;;;;;;;;;3596274;39;20099;-86
2020/12/05 01:24:45;;;;;;;37.07;20.27;;;;;;;;;;3596029;39;20094;-86
2020/12/05 01:27:11;;;;;;;40.17;20.83;;;;;;;;;;3595612;40;20577;-87
2020/12/05 01:29:37;;;;;;;40.63;20.60;;;;;;;;;;3595949;40;20107;-87
2020/12/05 01:32:03;;;;;;;40.30;20.57;;;;;;;;;;3587758;40;20612;-87
2020/12/05 01:34:29;;;;;;;37.37;20.00;;;;;;;;;;3595376;40;20087;-88
2020/12/05 01:36:55;;;;;;;36.77;21.07;;;;;;;;;;3595496;40;20100;-87
2020/12/05 01:39:21;;;;;;;36.10;19.37;;;;;;;;;;3587440;32;20181;-88
2020/12/05 01:41:47;;;;;;;36.40;19.97;;;;;;;;;;3594934;40;20116;-86
2020/12/05 01:44:13;;;;;;;36.70;19.77;;;;;;;;;;3595430;40;20106;-87
2020/12/05 01:46:39;;;;;;;34.70;18.87;;;;;;;;;;3595135;40;20630;-86
2020/12/05 01:49:09;;;;;;;37.13;18.87;;;;;;;;;;3602069;32;20072;-87
2020/12/05 01:51:37;;;;;;;35.50;19.07;;;;;;;;;;3596014;32;20090;-87
2020/12/05 01:54:03;;;;;;;36.37;19.47;;;;;;;;;;3595909;39;20103;-86
2020/12/05 01:56:29;;;;;;;34.97;18.90;;;;;;;;;;3596974;32;20095;-87
2020/12/05 01:58:55;;;;;;;33.63;18.47;;;;;;;;;;3596720;32;20099;-88
2020/12/05 02:01:22;;;;;;;36.40;19.17;;;;;;;;;;3594504;32;20107;-87
2020/12/05 02:04:01;;;;;;;37.70;18.77;;;;;;;;;;3592592;40;20634;-87
2020/12/05 02:06:30;;;;;;;36.60;19.10;;;;;;;;;;3591698;40;20119;-87
2020/12/05 02:09:00;;;;;;;36.97;18.77;;;;;;;;;;3589346;32;20170;-87
2020/12/05 02:11:31;;;;;;;37.23;19.77;;;;;;;;;;3589217;32;20111;-87
2020/12/05 02:13:59;;;;;;;35.57;19.67;;;;;;;;;;3594832;32;20111;-86
2020/12/05 02:16:25;;;;;;;34.07;18.97;;;;;;;;;;3591910;40;20177;-86
2020/12/05 02:18:52;;;;;;;36.07;19.27;;;;;;;;;;3586103;32;20119;-86
2020/12/05 02:21:19;;;;;;;38.57;20.47;;;;;;;;;;3591330;40;20603;-87
2020/12/05 02:23:46;;;;;;;40.93;19.90;;;;;;;;;;3591471;40;20630;-87
2020/12/05 02:26:13;;;;;;;39.07;19.77;;;;;;;;;;3591242;40;20123;-87
2020/12/05 02:28:39;;;;;;;40.33;20.10;;;;;;;;;;3590967;40;20487;-86
2020/12/05 02:31:06;;;;;;;43.53;21.23;;;;;;;;;;3599653;32;20399;-87
2020/12/05 02:33:32;;;;;;;37.57;20.10;;;;;;;;;;3599148;32;20103;-87
2020/12/05 02:35:58;;;;;;;38.47;20.67;;;;;;;;;;3584311;40;20119;-87
2020/12/05 02:38:47;;;;;;;38.07;20.27;;;;;;;;;;3592289;40;20568;-87
2020/12/05 02:41:16;;;;;;;36.13;20.70;;;;;;;;;;3597371;32;20131;-87
2020/12/05 02:43:42;;;;;;;34.13;19.13;;;;;;;;;;3583867;32;20119;-87
2020/12/05 02:46:08;;;;;;;31.87;18.60;;;;;;;;;;3582353;40;20162;-87
2020/12/05 02:48:34;;;;;;;33.00;18.73;;;;;;;;;;3591870;40;20119;-86
2020/12/05 02:51:00;;;;;;;33.37;18.00;;;;;;;;;;3591684;40;20603;-87
2020/12/05 02:53:26;;;;;;;32.20;19.10;;;;;;;;;;3592555;32;20125;-87
2020/12/05 02:55:52;;;;;;;34.33;19.73;;;;;;;;;;3592472;40;20108;-87
2020/12/05 02:58:18;;;;;;;31.77;17.37;;;;;;;;;;3593750;32;20104;-88
2020/12/05 03:00:44;;;;;;;34.63;19.80;;;;;;;;;;3593804;40;20108;-88
2020/12/05 03:05:44;;;;;;;34.20;18.40;;;;;;;;;;3587770;39;20084;-89
2020/12/05 03:08:10;;;;;;;31.47;18.00;;;;;;;;;;3587765;39;20994;-89
2020/12/05 03:10:36;;;;;;;30.43;17.03;;;;;;;;;;3587194;39;20130;-89
2020/12/05 03:13:02;;;;;;;29.60;17.00;;;;;;;;;;3587526;39;20084;-88
2020/12/05 03:15:28;;;;;;;29.07;16.03;;;;;;;;;;3577864;32;20762;-89
2020/12/05 03:17:54;;;;;;;26.97;15.90;;;;;;;;;;3576914;40;20094;-90
2020/12/05 03:20:20;;;;;;;26.30;15.27;;;;;;;;;;3576904;40;20084;-88
2020/12/05 03:22:46;;;;;;;25.93;15.50;;;;;;;;;;3576900;40;20080;-89
2020/12/05 03:25:12;;;;;;;26.33;15.43;;;;;;;;;;3578858;40;20088;-90
2020/12/05 03:27:38;;;;;;;24.03;14.47;;;;;;;;;;3579434;40;20083;-90
2020/12/05 03:30:05;;;;;;;22.70;14.13;;;;;;;;;;3579639;40;20077;-87
2020/12/05 03:32:31;;;;;;;27.00;15.30;;;;;;;;;;3579560;40;20107;-90
2020/12/05 03:35:00;;;;;;;25.47;14.77;;;;;;;;;;3582270;32;20087;-91
2020/12/05 03:37:28;;;;;;;24.37;15.07;;;;;;;;;;3602889;32;20076;-92
2020/12/05 03:39:54;;;;;;;22.63;13.67;;;;;;;;;;3577579;40;20095;-91
2020/12/05 03:42:20;;;;;;;23.67;14.20;;;;;;;;;;3580940;32;20143;-89
2020/12/05 03:44:48;;;;;;;24.53;14.33;;;;;;;;;;3578741;40;21206;-89
2020/12/05 10:17:01;;;;;;;18.00;10.93;;;;;;;;;;741568;34;21702;31
2020/12/05 10:46:14;;;;;;;16.80;10.17;;;;;;;;;;3597764;39;20125;-85
2020/12/05 10:48:40;;;;;;;15.17;9.53;;;;;;;;;;3604055;32;20107;-86
2020/12/05 10:51:07;;;;;;;15.50;9.47;;;;;;;;;;3593760;39;20871;-86
2020/12/05 10:53:33;;;;;;;14.17;8.53;;;;;;;;;;3587476;39;20100;-86
2020/12/05 10:55:59;;;;;;;14.47;9.70;;;;;;;;;;3587634;39;20786;-86
2020/12/05 10:58:25;;;;;;;15.20;9.47;;;;;;;;;;3587552;39;20108;-87
2020/12/05 11:00:51;;;;;;;15.03;9.70;;;;;;;;;;3590479;32;20830;-86
2020/12/05 11:03:17;;;;;;;14.13;8.97;;;;;;;;;;3587494;39;20088;-86
2020/12/05 11:05:43;;;;;;;15.63;9.50;;;;;;;;;;3587471;39;20115;-86
2020/12/05 11:08:09;;;;;;;13.83;9.23;;;;;;;;;;3591501;32;20100;-86
2020/12/05 11:10:35;;;;;;;15.47;9.80;;;;;;;;;;3587419;39;20088;-86
2020/12/05 11:13:01;;;;;;;13.07;8.40;;;;;;;;;;3591718;32;20093;-86
2020/12/05 11:15:27;;;;;;;14.57;9.70;;;;;;;;;;3587465;39;20990;-86
2020/12/05 11:17:53;;;;;;;12.53;8.60;;;;;;;;;;3587456;39;20100;-85
2020/12/05 11:20:21;;;;;;;14.30;8.27;;;;;;;;;;3582102;32;20911;-86
2020/12/05 11:22:47;;;;;;;13.57;8.57;;;;;;;;;;3580633;32;20130;-86
2020/12/05 11:25:13;;;;;;;13.40;8.50;;;;;;;;;;3577518;40;20096;-87
2020/12/05 11:27:40;;;;;;;14.63;8.33;;;;;;;;;;3581194;32;20092;-85
2020/12/05 13:50:45;;;;;;;16.33;10.27;;;;;;;;;;3595368;39;20649;-85
2020/12/05 13:53:11;;;;;;;16.53;10.20;;;;;;;;;;3593370;32;20138;-85
2020/12/05 13:55:37;;;;;;;17.53;10.67;;;;;;;;;;3593411;32;20091;-85
2020/12/05 13:58:03;;;;;;;17.30;10.33;;;;;;;;;;3593588;32;20111;-86
2020/12/05 14:00:29;;;;;;;18.40;11.03;;;;;;;;;;3587868;39;20080;-85
2020/12/05 14:02:55;;;;;;;18.57;10.97;;;;;;;;;;3594746;32;20692;-85
2020/12/05 14:06:27;;;;;;;18.30;10.77;;;;;;;;;;5108722;27;20409;-86
2020/12/05 14:08:53;;;;;;;18.40;11.37;;;;;;;;;;5107664;28;20036;-86
2020/12/05 14:11:22;;;;;;;20.83;11.43;;;;;;;;;;5109222;28;20564;-87
2020/12/05 14:13:48;;;;;;;20.30;11.20;;;;;;;;;;5094267;28;20085;-86
2020/12/05 14:16:14;;;;;;;20.27;11.47;;;;;;;;;;5099821;28;20031;-85
2020/12/05 14:18:41;;;;;;;18.23;10.47;;;;;;;;;;5107767;28;20027;-86
2020/12/05 14:21:07;;;;;;;19.50;10.83;;;;;;;;;;5107645;28;20110;-86
2020/12/05 14:23:33;;;;;;;19.70;11.27;;;;;;;;;;5108104;28;20080;-86
2020/12/05 14:25:59;;;;;;;18.17;10.50;;;;;;;;;;5104985;28;20132;-85
2020/12/05 14:28:26;;;;;;;19.27;11.50;;;;;;;;;;5097248;28;20452;-86
2020/12/05 14:30:52;;;;;;;21.40;11.67;;;;;;;;;;5105072;28;20054;-86
2020/12/05 14:33:20;;;;;;;19.47;11.30;;;;;;;;;;5107078;28;20023;-86
2020/12/05 14:35:46;;;;;;;17.93;10.97;;;;;;;;;;5107670;28;20495;-86
2020/12/05 14:38:12;;;;;;;20.47;11.20;;;;;;;;;;5107404;28;20042;-86
2020/12/05 14:40:38;;;;;;;20.43;11.20;;;;;;;;;;5107594;28;20031;-86
2020/12/05 14:43:04;;;;;;;17.87;11.13;;;;;;;;;;5109330;28;20114;-86
2020/12/05 14:45:31;;;;;;;16.67;10.03;;;;;;;;;;5105098;28;20775;-86
2020/12/05 14:47:57;;;;;;;17.00;10.20;;;;;;;;;;5103950;28;20585;-86
2020/12/05 14:50:23;;;;;;;20.37;11.90;;;;;;;;;;5106409;28;20118;-86
2020/12/05 14:52:49;;;;;;;18.63;11.50;;;;;;;;;;5107811;28;20488;-86
2020/12/05 14:55:15;;;;;;;20.00;11.60;;;;;;;;;;5108102;28;20512;-85
2020/12/05 14:57:41;;;;;;;21.20;11.27;;;;;;;;;;5103713;28;20452;-87
2020/12/05 15:00:07;;;;;;;20.83;11.83;;;;;;;;;;5099277;28;20030;-87
2020/12/05 15:02:33;;;;;;;21.07;11.77;;;;;;;;;;5099130;28;20437;-87
2020/12/05 15:05:01;;;;;;;21.27;12.50;;;;;;;;;;5101280;28;20036;-86
2020/12/05 15:07:27;;;;;;;20.57;12.37;;;;;;;;;;5087365;28;20024;-87
2020/12/05 15:09:57;;;;;;;22.47;13.37;;;;;;;;;;5087182;28;20028;-91
2020/12/05 15:12:23;;;;;;;23.73;12.80;;;;;;;;;;5088027;28;20028;-92
2020/12/05 15:14:49;;;;;;;23.93;12.67;;;;;;;;;;5088342;28;20173;-92
2020/12/05 15:17:15;;;;;;;23.73;13.07;;;;;;;;;;5076905;28;20031;-92
2020/12/05 15:19:43;;;;;;;24.53;13.37;;;;;;;;;;5075089;28;20032;-92
2020/12/05 15:22:30;;;;;;;24.70;13.57;;;;;;;;;;5090687;28;20081;-91
2020/12/05 15:24:57;;;;;;;26.20;15.23;;;;;;;;;;5093918;28;20031;-91
2020/12/05 15:27:23;;;;;;;26.33;14.30;;;;;;;;;;5094965;28;20034;-91
2020/12/05 15:29:52;;;;;;;22.67;13.87;;;;;;;;;;5094812;28;20429;-91
2020/12/05 15:32:18;;;;;;;25.60;14.07;;;;;;;;;;5097591;28;20085;-91
2020/12/05 15:34:44;;;;;;;26.37;13.90;;;;;;;;;;5109345;28;20036;-92
2020/12/05 15:37:11;;;;;;;28.60;15.00;;;;;;;;;;5075025;28;20081;-92
2020/12/05 15:39:38;;;;;;;25.70;13.93;;;;;;;;;;5074341;28;20036;-92
2020/12/05 15:42:08;;;;;;;29.23;15.47;;;;;;;;;;5074033;28;20025;-91
2020/12/05 15:44:34;;;;;;;25.93;14.13;;;;;;;;;;5078113;28;20393;-91
2020/12/05 15:47:01;;;;;;;26.57;14.07;;;;;;;;;;5087837;28;20028;-92
2020/12/05 15:49:29;;;;;;;23.53;13.17;;;;;;;;;;5094758;28;20526;-91
2020/12/05 15:51:55;;;;;;;26.83;13.73;;;;;;;;;;5094068;28;20035;-91
2020/12/05 15:54:21;;;;;;;26.67;13.80;;;;;;;;;;5094047;28;20035;-92
2020/12/05 15:56:49;;;;;;;25.07;14.63;;;;;;;;;;5094059;28;20028;-92
2020/12/05 15:59:16;;;;;;;26.77;14.63;;;;;;;;;;5094312;28;20493;-92
2020/12/05 16:04:18;;;;;;;23.23;12.83;;;;;;;;;;5136120;22;20049;-96
2020/12/05 16:17:01;;;;;;;25.67;14.43;;;;;;;;;;5034687;28;20041;-91
2020/12/05 16:19:28;;;;;;;115.47;48.13;;;;;;;;;;5013908;28;20056;-86
2020/12/05 17:47:28;;;;;;;24.77;13.30;;;;;;;;;;5022006;28;20479;-94
2020/12/05 19:18:11;;;;;;;24.97;13.93;;;;;;;;;;5034239;28;20183;-87
2020/12/05 19:20:42;;;;;;;21.67;12.33;;;;;;;;;;5048302;28;20071;-92
2020/12/05 19:23:13;;;;;;;21.83;13.37;;;;;;;;;;5016844;28;20133;-91
2020/12/05 19:25:39;;;;;;;22.87;12.73;;;;;;;;;;5032962;28;20120;-92
2020/12/05 19:28:05;;;;;;;23.63;13.87;;;;;;;;;;5034237;28;20030;-91
2020/12/05 19:30:32;;;;;;;26.37;15.70;;;;;;;;;;5032939;28;20088;-92
2020/12/05 19:32:58;;;;;;;26.53;16.17;;;;;;;;;;5033672;28;20089;-92
2020/12/05 19:35:24;;;;;;;27.07;15.97;;;;;;;;;;5033881;28;20088;-91
2020/12/05 19:37:50;;;;;;;25.30;14.47;;;;;;;;;;5038714;28;20128;-91
2020/12/05 19:40:16;;;;;;;24.40;14.70;;;;;;;;;;5035692;28;20045;-92
2020/12/05 19:42:45;;;;;;;25.17;13.80;;;;;;;;;;5034157;28;20097;-90
2020/12/05 19:45:14;;;;;;;22.47;13.73;;;;;;;;;;5049498;28;20029;-92
2020/12/05 19:47:44;;;;;;;25.97;15.03;;;;;;;;;;5040029;28;20084;-91
2020/12/05 19:50:12;;;;;;;27.03;15.00;;;;;;;;;;5037094;28;20030;-93
2020/12/05 19:52:38;;;;;;;28.43;17.03;;;;;;;;;;5016700;28;20402;-91
2020/12/05 19:55:06;;;;;;;27.57;16.10;;;;;;;;;;5015771;28;20038;-92
2020/12/05 19:57:32;;;;;;;28.07;16.40;;;;;;;;;;5015573;28;20038;-92
2020/12/05 19:59:59;;;;;;;26.03;15.70;;;;;;;;;;5014649;28;20394;-91
2020/12/05 20:02:26;;;;;;;31.93;17.13;;;;;;;;;;5015793;28;20034;-92
2020/12/05 20:04:52;;;;;;;30.40;18.03;;;;;;;;;;5017744;28;20091;-91
2020/12/05 20:07:24;;;;;;;28.50;16.67;;;;;;;;;;5022672;28;20041;-91
2020/12/05 20:09:53;;;;;;;38.77;22.10;;;;;;;;;;5031807;28;20045;-92
2020/12/05 20:12:25;;;;;;;36.67;21.73;;;;;;;;;;5015557;28;20042;-92
2020/12/05 20:14:51;;;;;;;;;;;;;;;;;;5015940;28;20446;-92
2020/12/05 20:17:17;;;;;;;27.13;16.80;;;;;;;;;;5036829;28;19921;-91
2020/12/05 20:19:44;;;;;;;29.67;17.40;;;;;;;;;;5047315;28;20073;-92
2020/12/05 20:22:10;;;;;;;28.13;16.23;;;;;;;;;;5013300;28;20105;-92
2020/12/05 20:24:38;;;;;;;26.23;15.73;;;;;;;;;;5014888;28;20033;-93
2020/12/05 20:27:21;;;;;;;26.70;15.07;;;;;;;;;;5015692;28;20044;-92
2020/12/05 20:29:50;;;;;;;29.23;16.83;;;;;;;;;;5019100;28;20030;-93
2020/12/05 20:32:19;;;;;;;30.67;18.23;;;;;;;;;;5012106;28;20021;-91
2020/12/05 20:34:46;;;;;;;31.60;18.07;;;;;;;;;;5013526;28;20021;-92
2020/12/05 20:37:13;;;;;;;27.93;16.47;;;;;;;;;;5017159;28;20509;-93
2020/12/05 20:39:40;;;;;;;28.23;16.37;;;;;;;;;;5013341;28;20028;-91
2020/12/05 20:42:06;;;;;;;23.97;14.97;;;;;;;;;;5014479;28;20498;-94
2020/12/05 20:44:33;;;;;;;26.97;15.30;;;;;;;;;;5019473;28;20034;-92
2020/12/05 20:46:59;;;;;;;26.60;15.43;;;;;;;;;;5016228;28;20026;-92
2020/12/05 20:49:28;;;;;;;26.47;15.10;;;;;;;;;;5012204;28;20114;-92
2020/12/05 20:51:54;;;;;;;31.40;17.00;;;;;;;;;;5012194;28;20542;-93
2020/12/05 20:54:20;;;;;;;29.30;16.93;;;;;;;;;;5013664;28;20064;-92
2020/12/05 20:56:50;;;;;;;29.60;17.20;;;;;;;;;;5012540;28;20033;-92
2020/12/05 20:59:18;;;;;;;29.83;17.40;;;;;;;;;;4999670;28;20597;-92
2020/12/05 21:01:49;;;;;;;32.77;17.33;;;;;;;;;;5037172;28;20452;-92
2020/12/05 21:04:15;;;;;;;28.00;17.13;;;;;;;;;;5013826;28;20360;-93
2020/12/05 21:06:41;;;;;;;27.57;16.77;;;;;;;;;;5019785;28;20025;-93
2020/12/05 21:09:07;;;;;;;31.43;19.13;;;;;;;;;;5031787;28;20033;-89
2020/12/05 21:11:34;;;;;;;32.50;18.33;;;;;;;;;;5027799;28;20124;-89
2020/12/05 21:14:01;;;;;;;31.43;18.80;;;;;;;;;;5010874;28;20370;-88
2020/12/05 21:16:27;;;;;;;29.77;16.03;;;;;;;;;;5011288;28;20038;-89
2020/12/05 21:18:53;;;;;;;31.57;17.30;;;;;;;;;;5010768;28;20177;-88
2020/12/05 21:21:20;;;;;;;29.20;17.77;;;;;;;;;;5011309;28;20124;-87
2020/12/05 21:23:46;;;;;;;29.07;17.00;;;;;;;;;;5012843;28;20041;-88
2020/12/05 21:26:12;;;;;;;28.83;17.73;;;;;;;;;;5024095;28;20046;-87
2020/12/05 21:28:39;;;;;;;30.97;18.03;;;;;;;;;;5033267;28;20076;-88
2020/12/05 21:31:05;;;;;;;27.97;16.50;;;;;;;;;;5032052;28;20378;-89
2020/12/05 21:33:31;;;;;;;29.07;17.03;;;;;;;;;;5032817;28;20032;-88
2020/12/05 21:35:57;;;;;;;29.10;16.93;;;;;;;;;;5032613;28;20064;-90
2020/12/05 21:38:29;;;;;;;27.97;16.70;;;;;;;;;;5025563;28;20083;-89
2020/12/05 21:40:56;;;;;;;22.10;12.48;;;;;;;;;;5031911;28;20029;-88
2020/12/05 21:43:22;;;;;;;30.97;17.67;;;;;;;;;;5033949;28;20022;-88
2020/12/05 21:45:48;;;;;;;30.83;17.67;;;;;;;;;;5032496;28;20026;-87
2020/12/05 21:48:14;;;;;;;31.10;18.30;;;;;;;;;;5034711;28;20022;-88
2020/12/05 21:50:40;;;;;;;32.00;19.70;;;;;;;;;;5032099;28;20156;-88
2020/12/05 21:53:06;;;;;;;32.37;19.83;;;;;;;;;;5032389;28;20107;-89
2020/12/05 21:55:33;;;;;;;31.90;19.07;;;;;;;;;;5032080;28;20397;-88
2020/12/05 21:57:59;;;;;;;30.43;18.87;;;;;;;;;;5031814;28;20029;-88
2020/12/05 22:00:25;;;;;;;32.07;18.87;;;;;;;;;;5013840;28;20061;-88
2020/12/05 22:02:52;;;;;;;30.93;18.67;;;;;;;;;;5012297;28;20096;-88
2020/12/05 22:05:18;;;;;;;32.13;18.43;;;;;;;;;;5021334;28;20044;-87
2020/12/05 22:07:44;;;;;;;66.00;20.33;;;;;;;;;;5012875;28;20053;-88
2020/12/05 22:10:10;;;;;;;63.93;20.50;;;;;;;;;;5012429;28;20033;-88
2020/12/05 22:12:36;;;;;;;36.47;19.33;;;;;;;;;;5012965;28;20030;-88
2020/12/05 22:15:03;;;;;;;35.50;20.10;;;;;;;;;;5011118;28;20037;-88
2020/12/05 22:17:29;;;;;;;41.20;22.47;;;;;;;;;;5012100;28;20042;-88
2020/12/05 22:19:55;;;;;;;46.87;21.60;;;;;;;;;;5011329;28;20060;-87
2020/12/05 22:22:21;;;;;;;32.07;18.57;;;;;;;;;;5012675;28;20399;-88
2020/12/05 22:24:47;;;;;;;34.97;20.43;;;;;;;;;;5012914;28;20037;-88
2020/12/05 22:27:13;;;;;;;38.37;20.30;;;;;;;;;;5016771;28;20026;-89
2020/12/05 22:29:39;;;;;;;39.00;21.33;;;;;;;;;;5018354;28;20045;-88
2020/12/05 22:32:05;;;;;;;41.00;22.07;;;;;;;;;;5022879;28;20483;-88
2020/12/05 22:34:31;;;;;;;47.67;23.37;;;;;;;;;;5030858;28;20104;-88
2020/12/05 22:36:57;;;;;;;39.43;21.63;;;;;;;;;;5018002;28;20022;-88
2020/12/05 22:39:25;;;;;;;39.87;21.27;;;;;;;;;;5017593;28;20018;-88
2020/12/05 22:41:51;;;;;;;35.33;20.00;;;;;;;;;;5016189;28;20486;-88
2020/12/05 22:44:17;;;;;;;38.27;21.23;;;;;;;;;;5015969;28;20032;-88
2020/12/05 22:46:47;;;;;;;39.33;20.47;;;;;;;;;;5015131;28;20022;-88
2020/12/05 22:49:13;;;;;;;39.60;20.87;;;;;;;;;;5015339;28;20403;-88
2020/12/05 22:51:40;;;;;;;38.83;20.73;;;;;;;;;;5015283;28;20034;-88
2020/12/05 22:54:06;;;;;;;41.37;21.60;;;;;;;;;;5014725;28;20026;-87
2020/12/05 22:56:32;;;;;;;37.70;21.30;;;;;;;;;;5015607;28;20057;-87
2020/12/05 22:58:58;;;;;;;37.13;21.10;;;;;;;;;;5015922;28;20037;-88
2020/12/05 23:01:24;;;;;;;41.07;21.13;;;;;;;;;;5015800;28;20143;-85
2020/12/05 23:03:50;;;;;;;201.80;22.30;;;;;;;;;;5016715;28;20372;-86
2020/12/05 23:06:17;;;;;;;33.93;17.83;;;;;;;;;;5015200;28;20026;-86
2020/12/05 23:08:43;;;;;;;31.53;19.23;;;;;;;;;;5015303;28;20025;-86
2020/12/05 23:11:13;;;;;;;33.63;19.17;;;;;;;;;;5015413;28;20026;-86
2020/12/05 23:13:39;;;;;;;33.70;19.47;;;;;;;;;;5033452;28;20494;-87
2020/12/05 23:16:09;;;;;;;33.37;20.00;;;;;;;;;;5020155;28;20128;-86
2020/12/05 23:18:36;;;;;;;34.43;19.67;;;;;;;;;;5015519;28;20030;-86
2020/12/05 23:21:03;;;;;;;33.73;20.07;;;;;;;;;;5014351;28;20030;-87
2020/12/05 23:23:29;;;;;;;32.30;18.43;;;;;;;;;;5015115;28;20088;-86
2020/12/05 23:25:55;;;;;;;33.70;19.20;;;;;;;;;;5016902;28;20434;-86
2020/12/05 23:28:21;;;;;;;33.60;19.90;;;;;;;;;;5015364;28;20026;-86
2020/12/05 23:36:11;;;;;;;31.43;18.27;;;;;;;;;;5016084;28;20079;-86
2020/12/05 23:38:37;;;;;;;29.80;18.23;;;;;;;;;;5030968;28;20060;-86
2020/12/05 23:41:03;;;;;;;30.37;18.73;;;;;;;;;;5032239;28;20052;-86
2020/12/05 23:43:29;;;;;;;29.37;17.67;;;;;;;;;;5031706;28;20029;-87
2020/12/05 23:45:55;;;;;;;31.77;18.60;;;;;;;;;;5030848;28;20419;-86
2020/12/05 23:48:21;;;;;;;37.63;19.53;;;;;;;;;;5015335;28;20495;-85
2020/12/05 23:50:47;;;;;;;32.47;18.63;;;;;;;;;;5015197;28;20022;-86
2020/12/05 23:53:13;;;;;;;33.30;18.87;;;;;;;;;;5015241;28;20022;-86
2020/12/05 23:55:41;;;;;;;31.13;18.33;;;;;;;;;;5016106;28;20065;-86
2020/12/05 23:58:06;;;;;;;33.87;19.43;;;;;;;;;;5031852;28;20109;-87
